Time;durP1;ratioP1;P1;durP2;ratioP2;P2;SDS_P1;SDS_P2;PMS_P1;PMS_P2;Temp;Humidity;BMP_temperature;BMP_pressure;BME280_temperature;BME280_humidity;BME280_pressure;Samples;Min_cycle;Max_cycle;Signal;HPM_P1;HPM_P2
2022/10/08 00:01:06;;;;;;;8.15;7.32;;;8.80;99.90;;;;;;5033010;28;20037;-77
2022/10/08 00:03:34;;;;;;;10.38;6.65;;;8.80;99.90;;;;;;5035937;28;20477;-76
2022/10/08 00:06:03;;;;;;;;;;;8.70;99.90;;;;;;5032858;28;20159;-76
2022/10/08 00:08:32;;;;;;;9.23;6.18;;;8.60;99.90;;;;;;5031006;28;20004;-76
2022/10/08 00:11:02;;;;;;;8.38;6.38;;;8.70;99.90;;;;;;5032669;28;20432;-77
2022/10/08 00:13:39;;;;;;;8.98;6.50;;;8.80;99.90;;;;;;5032266;28;20037;-78
2022/10/08 00:16:06;;;;;;;8.85;6.40;;;8.80;99.90;;;;;;5031696;28;20094;-76
2022/10/08 00:18:32;;;;;;;8.57;6.30;;;8.70;99.90;;;;;;5028656;28;20033;-77
2022/10/08 00:21:13;;;;;;;8.13;5.82;;;8.70;99.90;;;;;;5034978;28;20025;-77
2022/10/08 00:23:45;;;;;;;8.43;5.63;;;8.70;99.90;;;;;;5033917;28;20049;-76
2022/10/08 00:26:11;;;;;;;9.73;5.78;;;8.70;99.90;;;;;;5033635;28;20041;-77
2022/10/08 00:28:37;;;;;;;7.93;6.30;;;8.60;99.90;;;;;;5030878;28;20037;-77
2022/10/08 00:31:09;;;;;;;7.28;5.28;;;8.60;99.90;;;;;;5011124;28;21049;-77
2022/10/08 00:33:35;;;;;;;7.50;5.38;;;8.50;99.90;;;;;;5031227;28;20030;-77
2022/10/08 00:36:07;;;;;;;7.88;5.57;;;8.50;99.90;;;;;;5029225;28;20037;-78
2022/10/08 00:38:33;;;;;;;10.35;6.05;;;8.50;99.90;;;;;;5030334;28;20126;-76
2022/10/08 00:40:59;;;;;;;9.02;6.43;;;8.60;99.90;;;;;;5032381;28;20099;-76
2022/10/08 00:43:44;;;;;;;6.63;5.35;;;8.60;99.90;;;;;;5029425;28;20131;-77
2022/10/08 00:46:25;;;;;;;8.25;5.05;;;8.50;99.90;;;;;;5031167;28;20036;-77
2022/10/08 00:49:01;;;;;;;7.53;5.85;;;8.40;99.90;;;;;;5026213;28;20040;-78
2022/10/08 00:51:27;;;;;;;7.20;5.47;;;8.40;99.90;;;;;;5029505;28;21550;-77
2022/10/08 00:53:53;;;;;;;7.07;5.00;;;8.30;99.90;;;;;;5032711;28;20184;-78
2022/10/08 00:56:20;;;;;;;7.30;5.57;;;8.30;99.90;;;;;;5016296;28;20064;-77
2022/10/08 00:58:47;;;;;;;9.30;6.45;;;8.30;99.90;;;;;;5030210;28;20017;-77
2022/10/08 01:01:12;;;;;;;29.58;6.70;;;8.40;99.90;;;;;;5033199;28;20060;-80
2022/10/08 01:03:38;;;;;;;9.02;6.03;;;8.30;99.90;;;;;;5031043;28;20437;-81
2022/10/08 01:06:26;;;;;;;7.28;5.47;;;8.40;99.90;;;;;;5030772;28;20033;-80
2022/10/08 01:09:03;;;;;;;7.20;5.43;;;8.40;99.90;;;;;;5032433;28;20057;-79
2022/10/08 01:11:48;;;;;;;7.07;5.78;;;8.50;99.90;;;;;;5030605;28;20440;-81
2022/10/08 01:14:37;;;;;;;10.52;6.72;;;8.60;99.90;;;;;;5030331;28;20769;-80
2022/10/08 01:17:11;;;;;;;8.07;6.07;;;8.70;99.90;;;;;;5027328;28;20428;-80
2022/10/08 01:20:09;;;;;;;7.15;5.38;;;8.70;99.90;;;;;;5032468;28;20539;-81
2022/10/08 01:22:53;;;;;;;10.95;6.47;;;8.70;99.90;;;;;;5032755;28;20037;-78
2022/10/08 01:25:38;;;;;;;7.82;5.82;;;8.70;99.90;;;;;;5031198;28;20053;-81
2022/10/08 01:28:13;;;;;;;7.15;5.38;;;8.70;99.90;;;;;;5033045;28;20104;-81
2022/10/08 01:30:49;;;;;;;6.57;5.25;;;8.60;99.90;;;;;;5031054;28;21522;-80
2022/10/08 01:33:43;;;;;;;8.82;5.95;;;8.40;99.90;;;;;;5030404;28;20022;-79
2022/10/08 01:36:12;;;;;;;7.75;5.78;;;8.40;99.90;;;;;;5032969;28;20021;-79
2022/10/08 01:38:43;;;;;;;7.70;5.22;;;8.40;99.90;;;;;;5030972;28;20055;-80
2022/10/08 01:41:12;;;;;;;6.10;5.10;;;8.30;99.90;;;;;;5029709;28;20040;-79
2022/10/08 01:43:43;;;;;;;6.93;5.40;;;8.30;99.90;;;;;;5030976;28;20033;-79
2022/10/08 01:46:19;;;;;;;8.02;5.72;;;8.30;99.90;;;;;;5033438;28;20125;-80
2022/10/08 01:48:48;;;;;;;10.90;6.13;;;8.40;99.90;;;;;;5031737;28;20029;-80
2022/10/08 01:51:20;;;;;;;8.18;5.70;;;8.50;99.90;;;;;;5032639;28;20025;-80
2022/10/08 01:53:49;;;;;;;9.40;6.03;;;8.50;99.90;;;;;;5026340;28;20032;-80
2022/10/08 01:56:26;;;;;;;8.55;6.55;;;8.60;99.90;;;;;;5031376;28;20060;-80
2022/10/08 01:59:08;;;;;;;8.68;6.40;;;8.60;99.90;;;;;;5035133;28;20038;-79
2022/10/08 02:02:17;;;;;;;9.00;6.50;;;8.70;99.90;;;;;;5031433;28;20068;-80
2022/10/08 02:04:43;;;;;;;9.88;6.40;;;8.80;99.90;;;;;;5032913;28;20034;-80
2022/10/08 02:07:17;;;;;;;9.60;6.30;;;8.70;99.90;;;;;;5034553;28;20153;-80
2022/10/08 02:09:51;;;;;;;9.20;6.32;;;8.80;99.90;;;;;;5029721;28;20108;-80
2022/10/08 02:12:17;;;;;;;15.90;7.32;;;8.80;99.90;;;;;;5030725;28;20195;-80
2022/10/08 02:14:48;;;;;;;9.90;6.70;;;8.90;99.90;;;;;;5034027;28;20453;-80
2022/10/08 02:17:39;;;;;;;9.02;7.28;;;8.90;99.90;;;;;;5033194;28;20389;-79
2022/10/08 02:20:41;;;;;;;9.07;6.40;;;8.90;99.90;;;;;;5030126;28;20152;-81
2022/10/08 02:23:09;;;;;;;12.80;6.80;;;8.90;99.90;;;;;;5032468;28;20042;-79
2022/10/08 02:25:42;;;;;;;11.57;7.10;;;8.80;99.90;;;;;;5028498;28;20448;-80
2022/10/08 02:28:27;;;;;;;10.88;7.18;;;8.80;99.90;;;;;;5031293;28;20041;-81
2022/10/08 02:30:59;;;;;;;9.25;6.55;;;8.80;99.90;;;;;;5029052;28;20025;-80
2022/10/08 02:33:32;;;;;;;11.40;7.57;;;8.70;99.90;;;;;;5023482;28;20497;-81
2022/10/08 02:36:01;;;;;;;11.68;6.85;;;8.70;99.90;;;;;;5033349;28;20397;-78
2022/10/08 02:38:34;;;;;;;10.20;6.45;;;8.80;99.90;;;;;;5031894;28;20056;-79
2022/10/08 02:41:02;;;;;;;11.02;7.03;;;8.90;99.90;;;;;;5014579;28;20061;-82
2022/10/08 02:43:30;;;;;;;;;;;8.90;99.90;;;;;;5030990;28;20040;-78
2022/10/08 02:46:15;;;;;;;10.07;6.78;;;8.90;99.90;;;;;;5029365;28;20372;-80
2022/10/08 02:48:58;;;;;;;9.15;6.63;;;8.90;99.90;;;;;;5029599;28;20481;-80
2022/10/08 02:51:26;;;;;;;12.43;6.88;;;8.90;99.90;;;;;;5028293;28;20044;-81
2022/10/08 02:53:52;;;;;;;12.02;7.35;;;8.90;99.90;;;;;;5030959;28;20040;-83
2022/10/08 02:56:30;;;;;;;18.02;7.47;;;8.90;99.90;;;;;;5035772;28;20041;-79
2022/10/08 02:58:56;;;;;;;9.10;6.30;;;9.00;99.90;;;;;;5032127;28;20113;-81
2022/10/08 03:01:38;;;;;;;10.13;6.45;;;9.00;99.90;;;;;;5032643;28;20072;-79
2022/10/08 03:04:11;;;;;;;10.85;6.93;;;9.00;99.90;;;;;;5030907;28;20025;-81
2022/10/08 03:06:37;;;;;;;13.15;8.05;;;9.00;99.90;;;;;;5030794;28;20033;-82
2022/10/08 03:09:05;;;;;;;7.97;5.85;;;9.00;99.90;;;;;;5036892;28;20048;-80
2022/10/08 03:11:32;;;;;;;11.93;6.65;;;8.90;99.90;;;;;;5036462;28;20124;-79
2022/10/08 03:14:02;;;;;;;11.02;6.82;;;8.70;99.90;;;;;;5034433;28;20877;-79
2022/10/08 03:16:42;;;;;;;12.82;6.78;;;8.60;99.90;;;;;;5037274;28;20029;-80
2022/10/08 03:19:11;;;;;;;10.15;6.18;;;8.50;99.90;;;;;;5031645;28;20355;-80
2022/10/08 03:21:38;;;;;;;9.35;5.63;;;8.50;99.90;;;;;;5032268;28;20060;-80
2022/10/08 03:24:07;;;;;;;9.93;6.65;;;8.50;99.90;;;;;;5033316;28;20050;-80
2022/10/08 03:26:33;;;;;;;8.25;5.80;;;8.40;99.90;;;;;;5036871;28;20045;-80
2022/10/08 03:28:59;;;;;;;10.52;6.93;;;8.40;99.90;;;;;;5032689;28;20033;-78
2022/10/08 03:31:25;;;;;;;10.43;6.55;;;8.30;99.90;;;;;;5030109;28;20371;-80
2022/10/08 03:33:52;;;;;;;11.50;6.55;;;8.40;99.90;;;;;;5033611;28;20380;-80
2022/10/08 03:36:18;;;;;;;9.93;7.07;;;8.40;99.90;;;;;;5032763;28;20065;-79
2022/10/08 03:38:44;;;;;;;10.55;6.20;;;8.50;99.90;;;;;;5031317;28;20127;-80
2022/10/08 03:41:10;;;;;;;8.70;6.28;;;8.60;99.90;;;;;;5031968;28;20064;-81
2022/10/08 03:43:36;;;;;;;8.57;5.90;;;8.60;99.90;;;;;;5031326;28;20123;-79
2022/10/08 03:46:02;;;;;;;13.57;6.47;;;8.70;99.90;;;;;;5033087;28;20065;-79
2022/10/08 03:48:28;;;;;;;11.68;7.28;;;8.80;99.90;;;;;;5032911;28;20065;-80
2022/10/08 03:51:06;;;;;;;14.32;7.13;;;8.80;99.90;;;;;;5032326;28;20504;-79
2022/10/08 03:53:34;;;;;;;10.13;7.13;;;8.90;99.90;;;;;;5033171;28;20037;-80
2022/10/08 03:56:01;;;;;;;9.88;7.10;;;8.90;99.90;;;;;;5031244;28;20034;-80
2022/10/08 03:58:27;;;;;;;9.90;7.55;;;8.90;99.90;;;;;;5036000;28;20109;-79
2022/10/08 04:01:04;;;;;;;11.85;7.00;;;8.90;99.90;;;;;;5033285;28;20115;-80
2022/10/08 04:03:30;;;;;;;10.65;6.95;;;8.90;99.90;;;;;;5031103;28;20036;-80
2022/10/08 04:05:56;;;;;;;8.93;5.95;;;8.90;99.90;;;;;;5035125;28;20034;-79
2022/10/08 04:08:23;;;;;;;8.93;6.35;;;8.80;99.90;;;;;;5032148;28;20126;-80
2022/10/08 04:10:48;;;;;;;8.32;5.35;;;8.70;99.90;;;;;;5036379;28;20041;-80
2022/10/08 04:13:15;;;;;;;8.55;5.65;;;8.60;99.90;;;;;;5033737;28;20073;-80
2022/10/08 04:15:46;;;;;;;9.07;6.22;;;8.60;99.90;;;;;;5033854;28;20029;-79
2022/10/08 04:18:12;;;;;;;9.57;6.30;;;8.70;99.90;;;;;;5038145;28;20031;-80
2022/10/08 04:20:42;;;;;;;13.20;6.65;;;8.70;99.90;;;;;;5039694;28;20103;-80
2022/10/08 04:23:09;;;;;;;11.48;6.15;;;8.70;99.90;;;;;;5033779;28;20060;-78
2022/10/08 04:25:35;;;;;;;9.05;6.30;;;8.70;99.90;;;;;;5031779;28;20602;-81
2022/10/08 04:28:02;;;;;;;9.93;6.00;;;8.70;99.90;;;;;;5032226;28;20045;-80
2022/10/08 04:30:29;;;;;;;8.70;6.40;;;8.60;99.90;;;;;;5031189;28;20034;-80
2022/10/08 04:32:56;;;;;;;9.55;6.28;;;8.50;99.90;;;;;;5035369;28;20106;-80
2022/10/08 04:35:22;;;;;;;8.95;6.18;;;8.50;99.90;;;;;;5029340;28;20029;-79
2022/10/08 04:37:47;;;;;;;9.82;6.95;;;8.50;99.90;;;;;;5035193;28;20378;-81
2022/10/08 04:40:13;;;;;;;10.70;6.30;;;8.60;99.90;;;;;;5032861;28;20285;-80
2022/10/08 04:42:39;;;;;;;10.18;6.97;;;8.60;99.90;;;;;;5029074;28;20037;-81
2022/10/08 04:45:05;;;;;;;9.57;6.82;;;8.50;99.90;;;;;;5027220;28;20228;-80
2022/10/08 04:47:30;;;;;;;9.02;5.78;;;8.50;99.90;;;;;;5034693;28;20053;-81
2022/10/08 04:49:56;;;;;;;8.07;6.07;;;8.50;99.90;;;;;;5032211;28;20133;-79
2022/10/08 04:52:22;;;;;;;8.75;6.75;;;8.50;99.90;;;;;;5034134;28;20045;-79
2022/10/08 04:54:48;;;;;;;7.75;5.65;;;8.50;99.90;;;;;;5038463;28;20045;-80
2022/10/08 04:57:14;;;;;;;9.05;6.28;;;8.50;99.90;;;;;;5035573;28;20104;-80
2022/10/08 04:59:39;;;;;;;13.77;5.47;;;8.50;99.90;;;;;;5036453;28;20056;-80
2022/10/08 05:02:05;;;;;;;8.18;6.38;;;8.50;99.90;;;;;;5031470;28;20153;-79
2022/10/08 05:04:31;;;;;;;10.90;6.03;;;8.50;99.90;;;;;;5037402;28;20041;-80
2022/10/08 05:06:57;;;;;;;9.32;5.97;;;8.50;99.90;;;;;;5035196;28;20044;-80
2022/10/08 05:09:22;;;;;;;11.13;7.05;;;8.50;99.90;;;;;;5033312;28;20448;-79
2022/10/08 05:11:50;;;;;;;8.98;6.90;;;8.60;99.90;;;;;;5036553;28;20047;-80
2022/10/08 05:14:16;;;;;;;11.13;5.53;;;8.60;99.90;;;;;;5036176;28;20034;-80
2022/10/08 05:16:42;;;;;;;9.52;7.05;;;8.50;99.90;;;;;;5033304;28;20037;-80
2022/10/08 05:19:07;;;;;;;13.30;6.65;;;8.60;99.90;;;;;;5030519;28;20029;-81
2022/10/08 05:21:33;;;;;;;8.73;6.55;;;8.70;99.90;;;;;;5018552;28;20112;-79
2022/10/08 05:24:02;;;;;;;11.18;6.93;;;8.70;99.90;;;;;;5036513;28;20044;-81
2022/10/08 05:26:31;;;;;;;9.38;6.70;;;8.80;99.90;;;;;;5034173;28;20037;-80
2022/10/08 05:28:58;;;;;;;11.75;7.18;;;8.80;99.90;;;;;;5037421;28;20249;-81
2022/10/08 05:31:25;;;;;;;9.80;7.00;;;8.80;99.90;;;;;;5036604;28;20541;-79
2022/10/08 05:33:52;;;;;;;10.43;6.15;;;8.90;99.90;;;;;;5037619;28;20033;-80
2022/10/08 05:36:21;;;;;;;14.20;6.75;;;8.90;99.90;;;;;;5035157;28;20405;-80
2022/10/08 05:38:47;;;;;;;9.20;6.45;;;8.90;99.90;;;;;;5038150;28;20030;-80
2022/10/08 05:41:17;;;;;;;11.40;6.57;;;9.00;99.90;;;;;;5032335;28;20483;-80
2022/10/08 05:43:43;;;;;;;7.40;5.85;;;9.00;99.90;;;;;;5033778;28;20072;-80
2022/10/08 05:46:10;;;;;;;7.90;5.75;;;9.00;99.90;;;;;;5033065;28;20465;-80
2022/10/08 05:48:36;;;;;;;8.18;6.30;;;8.90;99.90;;;;;;5037133;28;20034;-80
2022/10/08 05:51:23;;;;;;;9.93;6.60;;;8.90;99.90;;;;;;5037481;28;20037;-81
2022/10/08 05:53:53;;;;;;;8.32;6.38;;;9.00;99.90;;;;;;5035734;28;20745;-80
2022/10/08 05:56:21;;;;;;;11.15;7.00;;;9.00;99.90;;;;;;5034398;28;20401;-81
2022/10/08 05:58:57;;;;;;;10.20;6.47;;;9.00;99.90;;;;;;5028768;28;20025;-80
2022/10/08 06:01:33;;;;;;;10.32;6.88;;;9.10;99.90;;;;;;5028293;28;20033;-79
2022/10/08 06:04:02;;;;;;;10.05;6.50;;;9.10;99.90;;;;;;5035311;28;20030;-81
2022/10/08 06:06:28;;;;;;;13.65;6.60;;;9.10;99.90;;;;;;5035582;28;20033;-81
2022/10/08 06:08:59;;;;;;;8.45;6.13;;;9.10;99.90;;;;;;5013113;28;20025;-80
2022/10/08 06:11:26;;;;;;;9.55;6.28;;;9.10;99.90;;;;;;5034934;28;20017;-81
2022/10/08 06:13:53;;;;;;;9.23;6.70;;;9.10;99.90;;;;;;5034214;28;20033;-80
2022/10/08 06:16:19;;;;;;;8.77;6.38;;;9.20;99.90;;;;;;5032212;28;20416;-81
2022/10/08 06:18:45;;;;;;;9.52;6.95;;;9.20;99.90;;;;;;5035595;28;20037;-79
2022/10/08 06:21:16;;;;;;;15.38;7.20;;;9.20;99.90;;;;;;5037083;28;20038;-80
2022/10/08 06:23:50;;;;;;;10.32;7.53;;;9.30;99.90;;;;;;5036411;28;20036;-80
2022/10/08 06:26:17;;;;;;;8.23;6.28;;;9.30;99.90;;;;;;5030941;28;20048;-80
2022/10/08 06:28:44;;;;;;;12.40;6.93;;;9.40;99.90;;;;;;5037895;28;20029;-79
2022/10/08 06:31:09;;;;;;;10.57;6.90;;;9.40;99.90;;;;;;5036612;28;20057;-81
2022/10/08 06:33:35;;;;;;;10.50;6.47;;;9.40;99.90;;;;;;5042907;28;20045;-81
2022/10/08 06:36:06;;;;;;;10.35;6.95;;;9.50;99.90;;;;;;5037118;28;20041;-82
2022/10/08 06:38:32;;;;;;;10.55;6.43;;;9.60;99.90;;;;;;5034524;28;20163;-81
2022/10/08 06:40:58;;;;;;;9.43;7.10;;;9.60;99.90;;;;;;5040724;28;20052;-80
2022/10/08 06:43:24;;;;;;;8.30;7.20;;;9.70;99.90;;;;;;5035432;28;20099;-82
2022/10/08 06:45:50;;;;;;;11.00;6.88;;;9.80;99.90;;;;;;5038408;28;20041;-80
2022/10/08 06:48:16;;;;;;;11.35;6.80;;;9.80;99.90;;;;;;5036819;28;20048;-81
2022/10/08 06:50:42;;;;;;;10.60;7.32;;;9.90;99.90;;;;;;5041730;28;20040;-79
2022/10/08 06:53:11;;;;;;;11.23;7.60;;;10.00;99.90;;;;;;5039687;28;20041;-80
2022/10/08 06:55:37;;;;;;;12.32;8.45;;;10.10;99.90;;;;;;5040158;28;20038;-84
2022/10/08 06:58:04;;;;;;;11.85;7.78;;;10.10;99.90;;;;;;5043149;28;20037;-87
2022/10/08 07:00:33;;;;;;;11.65;7.75;;;10.20;99.90;;;;;;5038654;28;20025;-86
2022/10/08 07:02:59;;;;;;;10.52;7.13;;;10.30;99.90;;;;;;5041898;28;20503;-86
2022/10/08 07:05:25;;;;;;;8.32;7.07;;;10.40;99.90;;;;;;5045351;28;20112;-85
2022/10/08 07:07:50;;;;;;;11.63;7.15;;;10.40;99.90;;;;;;5020543;28;20033;-85
2022/10/08 07:10:16;;;;;;;13.77;7.78;;;10.50;99.90;;;;;;5043986;28;20489;-84
2022/10/08 07:12:42;;;;;;;8.63;7.07;;;10.50;99.90;;;;;;5042134;28;20044;-87
2022/10/08 07:15:08;;;;;;;9.30;6.97;;;10.50;99.90;;;;;;5036735;28;20090;-87
2022/10/08 07:17:34;;;;;;;9.93;7.38;;;10.60;99.90;;;;;;5035140;28;20093;-87
2022/10/08 07:19:59;;;;;;;12.00;7.70;;;10.60;99.90;;;;;;5036166;28;20049;-86
2022/10/08 07:22:25;;;;;;;11.40;7.78;;;10.70;99.90;;;;;;5039308;28;20054;-85
2022/10/08 07:24:50;;;;;;;13.13;7.95;;;10.70;99.90;;;;;;5036208;28;20402;-86
2022/10/08 07:27:18;;;;;;;12.63;8.18;;;10.80;99.90;;;;;;5037896;28;20033;-84
2022/10/08 07:29:44;;;;;;;12.40;8.10;;;10.90;99.90;;;;;;5036631;28;20160;-85
2022/10/08 07:32:09;;;;;;;13.57;8.05;;;11.00;99.90;;;;;;5021174;28;20082;-84
2022/10/08 07:34:35;;;;;;;12.45;8.50;;;11.10;99.90;;;;;;5036047;28;20060;-85
2022/10/08 07:37:04;;;;;;;11.70;8.20;;;11.20;99.90;;;;;;5023088;28;20065;-81
2022/10/08 07:39:33;;;;;;;12.90;7.90;;;11.30;99.90;;;;;;5044494;28;20045;-80
2022/10/08 07:41:59;;;;;;;16.42;8.48;;;11.40;99.90;;;;;;5038218;28;20101;-85
2022/10/08 07:44:24;;;;;;;11.35;8.77;;;11.50;99.90;;;;;;5043311;28;20056;-86
2022/10/08 07:46:53;;;;;;;11.57;8.65;;;11.50;99.90;;;;;;5045552;28;20448;-87
2022/10/08 07:49:20;;;;;;;11.93;8.10;;;11.60;99.90;;;;;;5041292;28;20041;-85
2022/10/08 07:51:49;;;;;;;14.38;9.20;;;11.70;99.90;;;;;;5048324;28;20033;-88
2022/10/08 07:54:17;;;;;;;14.68;10.23;;;11.80;99.90;;;;;;5044506;28;20037;-84
2022/10/08 07:56:44;;;;;;;11.65;8.60;;;11.90;99.90;;;;;;5042424;28;20036;-84
2022/10/08 07:59:13;;;;;;;12.50;9.23;;;12.10;99.90;;;;;;5039289;28;20033;-85
2022/10/08 08:01:40;;;;;;;12.43;9.10;;;12.10;99.90;;;;;;5040615;28;20044;-84
2022/10/08 08:04:08;;;;;;;12.15;9.20;;;12.20;99.90;;;;;;5038562;28;20041;-83
2022/10/08 08:06:48;;;;;;;15.45;9.93;;;12.30;99.90;;;;;;5038401;28;20029;-85
2022/10/08 09:59:19;;;;;;;14.23;9.40;;;14.60;99.90;;;;;;5139627;27;20462;-38
2022/10/08 10:01:46;;;;;;;14.30;9.25;;;14.80;99.90;;;;;;5094562;27;20045;-35
2022/10/08 10:04:29;;;;;;;13.68;8.57;;;14.80;99.90;;;;;;5081415;28;20400;-29
2022/10/08 10:06:55;;;;;;;12.85;9.13;;;14.90;99.90;;;;;;5085710;28;20028;-40
2022/10/08 10:09:48;;;;;;;12.07;8.68;;;15.00;99.90;;;;;;5080902;28;20039;-39
2022/10/08 10:12:21;;;;;;;12.57;8.05;;;15.00;99.90;;;;;;5082542;28;20037;-35
2022/10/08 10:14:56;;;;;;;18.27;9.30;;;15.10;99.90;;;;;;5082183;28;20032;-37
2022/10/08 10:17:48;;;;;;;13.63;8.85;;;15.10;99.90;;;;;;5086244;28;20074;-37
2022/10/08 10:20:26;;;;;;;14.52;8.38;;;15.20;99.90;;;;;;5079181;28;20028;-32
2022/10/08 10:23:10;;;;;;;10.45;8.13;;;15.20;99.90;;;;;;5084754;28;20503;-32
2022/10/08 10:25:41;;;;;;;13.77;8.00;;;15.20;99.90;;;;;;5080615;28;20029;-39
2022/10/08 10:28:14;;;;;;;17.98;8.73;;;15.20;99.90;;;;;;5082729;28;20072;-34
2022/10/08 10:31:00;;;;;;;13.43;8.60;;;15.20;99.90;;;;;;5082216;28;20028;-39
2022/10/08 10:33:36;;;;;;;8.75;7.22;;;15.20;99.90;;;;;;5099306;28;20029;-37
2022/10/08 10:36:08;;;;;;;13.48;8.65;;;15.10;99.90;;;;;;5098031;28;20077;-38
2022/10/08 10:38:40;;;;;;;12.00;7.25;;;15.10;99.90;;;;;;5103414;28;20986;-39
2022/10/08 10:41:43;;;;;;;10.85;6.95;;;15.10;99.90;;;;;;5098080;28;20031;-38
2022/10/08 10:44:21;;;;;;;11.25;7.25;;;15.20;99.90;;;;;;5101022;28;20107;-38
2022/10/08 10:46:51;;;;;;;13.45;7.00;;;15.20;99.90;;;;;;5101667;28;20114;-36
2022/10/08 10:49:28;;;;;;;13.73;7.40;;;15.20;99.90;;;;;;5098437;28;20118;-37
2022/10/08 10:51:57;;;;;;;13.18;7.03;;;15.30;99.90;;;;;;5098999;28;20040;-38
2022/10/08 10:54:59;;;;;;;11.80;7.13;;;15.30;99.90;;;;;;5101575;28;20060;-36
2022/10/08 10:57:40;;;;;;;10.05;6.63;;;15.30;99.90;;;;;;5108116;28;20399;-38
2022/10/08 11:00:26;;;;;;;10.13;7.28;;;15.30;99.90;;;;;;5090561;28;20030;-39
2022/10/08 11:03:01;;;;;;;11.55;7.45;;;15.30;99.90;;;;;;5082391;28;20431;-36
2022/10/08 11:05:31;;;;;;;11.27;7.18;;;15.30;99.90;;;;;;5088452;28;20020;-38
2022/10/08 11:08:09;;;;;;;13.57;7.35;;;15.20;99.90;;;;;;5089877;28;20039;-39
2022/10/08 11:10:37;;;;;;;;;;;15.20;99.90;;;;;;5087889;28;20070;-34
2022/10/08 11:13:40;;;;;;;16.10;7.25;;;15.30;99.90;;;;;;5086734;28;20375;-38
2022/10/08 11:16:27;;;;;;;11.27;7.05;;;15.20;99.90;;;;;;5084497;28;20028;-36
2022/10/08 11:18:58;;;;;;;11.27;6.88;;;15.20;99.90;;;;;;5087615;28;20047;-35
2022/10/08 11:21:52;;;;;;;9.43;6.95;;;15.20;99.90;;;;;;5085231;28;20043;-31
2022/10/08 11:24:41;;;;;;;9.30;6.25;;;15.20;99.90;;;;;;5088258;28;20039;-31
2022/10/08 11:27:31;;;;;;;12.70;7.53;;;15.20;99.90;;;;;;5084471;28;20404;-37
2022/10/08 11:30:12;;;;;;;10.55;6.53;;;15.20;99.90;;;;;;5089430;28;20036;-34
2022/10/08 11:32:44;;;;;;;10.38;6.75;;;15.30;99.90;;;;;;5061702;28;20040;-37
2022/10/08 11:35:22;;;;;;;9.48;7.00;;;15.30;99.90;;;;;;5062743;28;20029;-38
2022/10/08 11:37:57;;;;;;;;;;;15.30;99.90;;;;;;5059705;28;20032;-34
2022/10/08 11:40:54;;;;;;;10.82;6.45;;;15.30;99.90;;;;;;5062190;28;19912;-37
2022/10/08 11:43:42;;;;;;;12.43;6.68;;;15.40;99.90;;;;;;5069536;28;20107;-37
2022/10/08 11:46:32;;;;;;;11.10;6.93;;;15.40;99.90;;;;;;5067433;28;20036;-38
2022/10/08 11:49:10;;;;;;;9.63;6.18;;;15.40;99.90;;;;;;5058035;28;20508;-34
2022/10/08 11:51:56;;;;;;;;;;;15.40;99.90;;;;;;5069454;28;20081;-29
2022/10/08 11:54:22;;;;;;;8.70;5.90;;;15.50;99.90;;;;;;5068251;28;19908;-38
2022/10/08 11:57:18;;;;;;;9.95;6.68;;;15.50;99.90;;;;;;5064693;28;20036;-37
2022/10/08 11:59:54;;;;;;;9.15;6.45;;;15.50;99.90;;;;;;5060217;28;20813;-38
2022/10/08 12:02:30;;;;;;;12.32;6.35;;;15.50;99.90;;;;;;5081946;28;20098;-39
2022/10/08 12:05:17;;;;;;;12.88;7.68;;;15.50;99.90;;;;;;5086123;28;20034;-39
2022/10/08 12:07:48;;;;;;;10.52;7.15;;;15.50;99.90;;;;;;5081785;28;20040;-38
2022/10/08 12:10:16;;;;;;;13.27;7.10;;;15.40;99.90;;;;;;5088658;28;20024;-39
2022/10/08 12:12:48;;;;;;;11.70;7.03;;;15.40;99.90;;;;;;5084410;28;20077;-38
2022/10/08 12:15:23;;;;;;;10.82;7.35;;;15.40;99.90;;;;;;5082391;28;20028;-32
2022/10/08 12:18:19;;;;;;;14.07;7.35;;;15.40;99.90;;;;;;5088558;28;20072;-38
2022/10/08 12:20:45;;;;;;;10.52;7.03;;;15.30;99.90;;;;;;5083086;28;20035;-37
2022/10/08 12:23:21;;;;;;;9.30;7.20;;;15.30;99.90;;;;;;5085685;28;20420;-38
2022/10/08 12:25:59;;;;;;;8.55;6.35;;;15.30;99.90;;;;;;5082184;28;20055;-38
2022/10/08 12:28:27;;;;;;;8.88;7.05;;;15.30;99.90;;;;;;5083513;28;20089;-39
2022/10/08 12:30:55;;;;;;;;;;;15.30;99.90;;;;;;5086380;28;20036;-36
2022/10/08 12:33:22;;;;;;;11.07;6.97;;;15.30;99.90;;;;;;5086312;28;19912;-38
2022/10/08 12:36:13;;;;;;;11.93;7.15;;;15.30;99.90;;;;;;5083434;28;20781;-38
2022/10/08 12:38:54;;;;;;;14.65;7.50;;;15.30;99.90;;;;;;5084120;28;20024;-39
2022/10/08 12:41:21;;;;;;;12.07;8.23;;;15.20;99.90;;;;;;5086925;28;20046;-37
2022/10/08 12:43:53;;;;;;;11.50;6.93;;;15.20;99.90;;;;;;5085855;28;20036;-36
2022/10/08 12:46:24;;;;;;;10.10;6.57;;;15.30;99.90;;;;;;5084925;28;20281;-34
2022/10/08 12:49:04;;;;;;;8.68;6.90;;;15.20;99.90;;;;;;5085168;28;20040;-38
2022/10/08 12:51:54;;;;;;;10.82;7.20;;;15.20;99.90;;;;;;5086425;28;20031;-37
2022/10/08 12:54:23;;;;;;;10.50;7.45;;;15.10;99.90;;;;;;5082820;28;20525;-38
2022/10/08 12:56:50;;;;;;;10.98;7.18;;;15.10;99.90;;;;;;5081810;28;20032;-39
2022/10/08 12:59:18;;;;;;;9.45;6.95;;;15.10;99.90;;;;;;5084857;28;20048;-34
2022/10/08 13:01:46;;;;;;;12.40;7.50;;;15.00;99.90;;;;;;5084516;28;20032;-39
2022/10/08 13:04:17;;;;;;;9.52;6.90;;;14.90;99.90;;;;;;5082338;28;20020;-38
2022/10/08 13:06:43;;;;;;;10.85;7.18;;;14.90;99.90;;;;;;5081325;28;20166;-38
2022/10/08 13:09:26;;;;;;;12.73;7.47;;;14.90;99.90;;;;;;5088212;28;20095;-37
2022/10/08 13:11:57;;;;;;;9.93;7.43;;;14.90;99.90;;;;;;5080599;28;20024;-36
2022/10/08 13:14:34;;;;;;;12.10;7.07;;;14.90;99.90;;;;;;5079481;28;20028;-35
2022/10/08 13:17:00;;;;;;;10.10;6.13;;;14.90;99.90;;;;;;5083295;28;20476;-38
2022/10/08 13:19:31;;;;;;;9.02;6.38;;;14.80;99.90;;;;;;5080869;28;20793;-36
2022/10/08 13:22:06;;;;;;;8.73;6.10;;;14.80;99.90;;;;;;5085846;28;20024;-38
2022/10/08 13:24:40;;;;;;;10.45;5.65;;;14.80;99.90;;;;;;5084772;28;20073;-38
2022/10/08 13:27:27;;;;;;;9.73;5.78;;;14.80;99.90;;;;;;5085004;28;20028;-37
2022/10/08 13:29:54;;;;;;;9.32;6.10;;;14.80;99.90;;;;;;5081493;28;20037;-36
2022/10/08 13:32:30;;;;;;;12.20;6.20;;;14.80;99.90;;;;;;5079549;28;20032;-33
2022/10/08 13:35:00;;;;;;;9.70;5.40;;;14.80;99.90;;;;;;5083605;28;20170;-35
2022/10/08 13:37:30;;;;;;;7.35;5.03;;;14.80;99.90;;;;;;5082002;28;20487;-34
2022/10/08 13:40:20;;;;;;;6.90;5.22;;;14.80;99.90;;;;;;5069982;28;20024;-34
2022/10/08 13:42:54;;;;;;;8.02;5.13;;;14.80;99.90;;;;;;5068492;28;20028;-37
2022/10/08 13:45:35;;;;;;;12.75;5.20;;;14.80;99.90;;;;;;5080867;28;20478;-38
2022/10/08 13:48:02;;;;;;;8.73;4.80;;;14.80;99.90;;;;;;5075434;28;20117;-29
2022/10/08 13:50:28;;;;;;;8.02;4.75;;;14.80;99.90;;;;;;5074481;28;20032;-35
2022/10/08 13:52:57;;;;;;;5.20;4.28;;;14.70;99.90;;;;;;5074419;28;20066;-37
2022/10/08 13:55:26;;;;;;;8.88;5.05;;;14.70;99.90;;;;;;5070642;28;20499;-37
2022/10/08 13:57:58;;;;;;;8.45;4.68;;;14.70;99.90;;;;;;5073445;28;20044;-36
2022/10/08 14:00:24;;;;;;;7.13;4.80;;;14.70;99.90;;;;;;5070885;28;20027;-33
2022/10/08 14:02:50;;;;;;;11.05;4.85;;;14.70;99.90;;;;;;5076595;28;20028;-33
2022/10/08 14:05:16;;;;;;;9.30;5.03;;;14.70;99.90;;;;;;5081054;28;20032;-29
2022/10/08 14:07:44;;;;;;;5.63;4.63;;;14.80;99.90;;;;;;5078921;28;20381;-38
2022/10/08 14:10:12;;;;;;;5.38;4.63;;;14.80;99.90;;;;;;5079383;28;20027;-45
2022/10/08 14:12:38;;;;;;;7.05;4.55;;;14.90;99.90;;;;;;5069988;28;20313;-39
2022/10/08 14:15:05;;;;;;;8.90;5.07;;;14.80;99.90;;;;;;5081689;28;20036;-36
2022/10/08 14:17:31;;;;;;;8.20;4.88;;;14.80;99.90;;;;;;5069574;28;20116;-30
2022/10/08 14:19:57;;;;;;;8.40;4.80;;;14.90;99.90;;;;;;5082706;28;20028;-38
2022/10/08 14:22:24;;;;;;;7.28;4.78;;;15.00;99.90;;;;;;5084576;28;20073;-39
2022/10/08 14:24:50;;;;;;;9.43;4.72;;;14.90;99.90;;;;;;5081577;28;20621;-38
2022/10/08 14:27:16;;;;;;;6.47;5.10;;;15.00;99.90;;;;;;5078497;28;20027;-34
2022/10/08 14:29:42;;;;;;;7.57;4.28;;;15.00;99.90;;;;;;5083472;28;20036;-38
2022/10/08 14:32:10;;;;;;;7.97;4.97;;;15.00;99.90;;;;;;5082150;28;20492;-36
2022/10/08 14:34:36;;;;;;;9.43;5.68;;;15.10;99.90;;;;;;5083149;28;20028;-36
2022/10/08 14:37:02;;;;;;;10.48;5.20;;;15.10;99.90;;;;;;5083848;28;20024;-33
2022/10/08 14:39:28;;;;;;;9.65;5.40;;;15.10;99.90;;;;;;5085133;28;20030;-37
2022/10/08 14:41:54;;;;;;;8.38;5.43;;;15.20;99.90;;;;;;5083123;28;20047;-35
2022/10/08 14:44:21;;;;;;;10.40;5.10;;;15.20;99.90;;;;;;5083824;28;20028;-34
2022/10/08 14:46:50;;;;;;;11.48;5.10;;;15.20;99.90;;;;;;5086677;28;20397;-36
2022/10/08 14:49:19;;;;;;;7.85;3.78;;;15.20;99.90;;;;;;5086341;28;20998;-38
2022/10/08 14:51:45;;;;;;;3.55;3.25;;;15.20;99.90;;;;;;5083935;28;20573;-39
2022/10/08 14:54:11;;;;;;;8.25;3.47;;;15.10;99.90;;;;;;5085478;28;20062;-39
2022/10/08 14:56:37;;;;;;;3.90;2.72;;;15.10;99.90;;;;;;5082702;28;20142;-37
2022/10/08 14:59:04;;;;;;;4.15;3.42;;;15.10;99.90;;;;;;5086451;28;20039;-36
2022/10/08 15:01:29;;;;;;;4.95;3.08;;;15.00;99.90;;;;;;5076183;28;20040;-32